Time;durP1;ratioP1;P1;durP2;ratioP2;P2;SDS_P1;SDS_P2;PMS_P1;PMS_P2;Temp;Humidity;BMP_temperature;BMP_pressure;BME280_temperature;BME280_humidity;BME280_pressure;Samples;Min_cycle;Max_cycle;Signal;HPM_P1;HPM_P2
2021/11/17 02:27:38;;;;;;;10.65;6.78;;;6.60;99.90;;;;;;5052179;28;20031;-61
2021/11/17 02:30:38;;;;;;;12.00;7.85;;;6.40;99.90;;;;;;5051594;28;20021;-60
2021/11/17 02:33:22;;;;;;;14.80;8.23;;;6.20;99.90;;;;;;5061275;28;20116;-62
2021/11/17 02:36:28;;;;;;;10.52;7.13;;;6.30;99.90;;;;;;5052730;28;20110;-60
2021/11/17 02:39:00;;;;;;;13.32;8.27;;;6.10;99.90;;;;;;5051594;28;20022;-59
2021/11/17 02:41:35;;;;;;;12.65;8.02;;;6.10;99.90;;;;;;5051200;28;20036;-59
2021/11/17 02:44:25;;;;;;;19.05;8.27;;;6.20;99.90;;;;;;5051424;28;20029;-59
2021/11/17 02:47:09;;;;;;;12.25;7.68;;;6.10;99.90;;;;;;5053390;28;20025;-60
2021/11/17 02:49:50;;;;;;;11.70;7.85;;;6.30;99.90;;;;;;5033295;28;20140;-61
2021/11/17 02:52:49;;;;;;;12.88;8.15;;;6.20;99.90;;;;;;5051079;28;20471;-60
2021/11/17 02:55:29;;;;;;;12.18;7.88;;;6.30;99.90;;;;;;5050198;28;20031;-60
2021/11/17 02:58:23;;;;;;;11.45;7.55;;;6.10;99.90;;;;;;5050888;28;20021;-60
2021/11/17 03:01:03;;;;;;;10.80;7.43;;;5.70;99.90;;;;;;5055082;28;20060;-60
2021/11/17 03:04:21;;;;;;;10.15;6.93;;;5.80;99.90;;;;;;5054987;28;20419;-61
2021/11/17 03:07:08;;;;;;;13.48;7.85;;;5.90;99.90;;;;;;5031393;28;20667;-60
2021/11/17 03:10:07;;;;;;;12.98;8.50;;;6.20;99.90;;;;;;5054503;28;20025;-61
2021/11/17 03:12:41;;;;;;;12.32;7.53;;;6.20;99.90;;;;;;5055022;28;20104;-60
2021/11/17 03:15:49;;;;;;;15.30;9.13;;;6.10;99.90;;;;;;5054340;28;20059;-60
2021/11/17 03:18:17;;;;;;;11.02;7.55;;;5.90;99.90;;;;;;5021073;28;20402;-61
2021/11/17 03:20:58;;;;;;;12.05;8.02;;;6.10;99.90;;;;;;5054694;28;20029;-59
2021/11/17 03:23:51;;;;;;;14.63;7.68;;;6.00;99.90;;;;;;5054560;28;20120;-61
2021/11/17 03:26:16;;;;;;;11.27;7.38;;;6.20;99.90;;;;;;5053908;28;20025;-60
2021/11/17 03:29:01;;;;;;;15.27;8.55;;;6.20;99.90;;;;;;5054741;28;20029;-58
2021/11/17 03:31:51;;;;;;;14.68;7.97;;;6.30;99.90;;;;;;5053997;28;20120;-60
2021/11/17 03:34:22;;;;;;;13.18;8.07;;;5.30;99.90;;;;;;5054033;28;20111;-62
2021/11/17 03:36:54;;;;;;;12.68;7.32;;;6.30;99.90;;;;;;5054103;28;20060;-61
2021/11/17 03:40:03;;;;;;;12.35;7.90;;;6.10;99.90;;;;;;5054110;28;20410;-61
2021/11/17 03:42:45;;;;;;;12.63;8.50;;;6.10;99.90;;;;;;5025323;28;20091;-61
2021/11/17 03:45:30;;;;;;;13.45;8.50;;;6.10;99.90;;;;;;5053508;28;20376;-58
2021/11/17 03:48:01;;;;;;;12.70;7.78;;;6.00;99.90;;;;;;5054130;28;20506;-62
2021/11/17 03:50:57;;;;;;;11.63;7.88;;;6.20;99.90;;;;;;5054086;28;20387;-60
2021/11/17 03:54:19;;;;;;;11.82;7.30;;;6.20;99.90;;;;;;5053978;28;20041;-59
2021/11/17 03:57:08;;;;;;;11.05;7.65;;;5.60;99.90;;;;;;4991998;28;20034;-60
2021/11/17 03:59:46;;;;;;;11.93;7.68;;;6.30;99.90;;;;;;5043177;28;20040;-60
2021/11/17 04:02:32;;;;;;;11.90;7.32;;;6.30;99.90;;;;;;5054216;28;20479;-61
2021/11/17 04:05:16;;;;;;;12.43;7.85;;;6.00;99.90;;;;;;5053281;28;20036;-61
2021/11/17 04:07:51;;;;;;;13.05;7.65;;;6.10;99.90;;;;;;5053988;28;20131;-60
2021/11/17 04:10:35;;;;;;;10.63;7.40;;;6.40;99.90;;;;;;5053217;28;20407;-62
2021/11/17 04:13:09;;;;;;;12.27;7.78;;;6.00;99.90;;;;;;5053592;28;20036;-61
2021/11/17 04:15:45;;;;;;;12.52;8.02;;;6.30;99.90;;;;;;5053102;28;20032;-63
2021/11/17 04:18:13;;;;;;;12.35;7.88;;;6.00;99.90;;;;;;5053795;28;20108;-63
2021/11/17 04:20:50;;;;;;;10.82;7.80;;;6.10;99.90;;;;;;5053710;28;20476;-62
2021/11/17 04:23:37;;;;;;;11.73;7.47;;;6.10;99.90;;;;;;5053285;28;20028;-62
2021/11/17 04:26:31;;;;;;;12.52;7.35;;;6.10;99.90;;;;;;5052724;28;20029;-62
2021/11/17 04:29:19;;;;;;;11.13;7.55;;;6.00;99.90;;;;;;5031236;28;20043;-62
2021/11/17 04:31:56;;;;;;;15.23;8.57;;;6.20;99.90;;;;;;5053168;28;20033;-62
2021/11/17 04:35:00;;;;;;;14.88;8.13;;;6.20;99.90;;;;;;5052934;28;20021;-62
2021/11/17 04:37:39;;;;;;;13.32;7.93;;;6.00;99.90;;;;;;4991511;28;20073;-62
2021/11/17 04:40:30;;;;;;;13.82;8.50;;;6.30;99.90;;;;;;5047102;28;20047;-62
2021/11/17 04:43:08;;;;;;;12.38;8.77;;;6.10;99.90;;;;;;5053431;28;20021;-62
2021/11/17 04:45:55;;;;;;;14.02;8.48;;;6.10;99.90;;;;;;5052693;28;20032;-61
2021/11/17 04:48:42;;;;;;;13.30;8.77;;;6.10;99.90;;;;;;5052800;28;20064;-63
2021/11/17 04:51:29;;;;;;;10.65;7.38;;;6.20;99.90;;;;;;5053054;28;20108;-62
2021/11/17 04:54:13;;;;;;;12.45;8.07;;;6.10;99.90;;;;;;5052815;28;20021;-62
2021/11/17 04:56:45;;;;;;;13.65;8.40;;;6.00;99.90;;;;;;5034522;28;20032;-62
2021/11/17 04:59:22;;;;;;;12.57;8.13;;;6.10;99.90;;;;;;5054072;28;20013;-62
2021/11/17 05:01:53;;;;;;;15.65;7.68;;;6.10;99.90;;;;;;5053809;28;20028;-62
2021/11/17 05:04:24;;;;;;;15.85;8.70;;;6.00;99.90;;;;;;5052343;28;20391;-61
2021/11/17 05:06:56;;;;;;;14.15;8.15;;;6.00;99.90;;;;;;5052409;28;20042;-62
2021/11/17 05:09:48;;;;;;;12.13;7.85;;;6.00;99.90;;;;;;5052389;28;20083;-61
2021/11/17 05:12:22;;;;;;;12.10;7.83;;;5.90;99.90;;;;;;5028772;28;20037;-61
2021/11/17 05:15:24;;;;;;;11.25;7.72;;;6.20;99.90;;;;;;5052086;28;20391;-61
2021/11/17 05:18:14;;;;;;;14.02;8.27;;;6.00;99.90;;;;;;5052517;28;20550;-62
2021/11/17 05:20:52;;;;;;;12.73;7.72;;;5.90;99.90;;;;;;5052311;28;20033;-61
2021/11/17 05:23:38;;;;;;;14.13;7.72;;;6.00;99.90;;;;;;5050671;28;20032;-67
2021/11/17 05:26:30;;;;;;;12.85;7.75;;;6.10;99.90;;;;;;5017168;28;20055;-68
2021/11/17 05:29:12;;;;;;;11.27;8.02;;;6.00;99.90;;;;;;5032420;28;20036;-68
2021/11/17 05:31:47;;;;;;;11.27;8.15;;;5.90;99.90;;;;;;5032379;28;20025;-68
2021/11/17 05:34:37;;;;;;;10.52;7.57;;;6.00;99.90;;;;;;5015003;28;20475;-68
2021/11/17 05:37:15;;;;;;;13.02;7.15;;;5.90;99.90;;;;;;5034678;28;20060;-68
2021/11/17 05:40:06;;;;;;;13.88;8.07;;;6.00;99.90;;;;;;5033231;28;20028;-68
2021/11/17 05:42:53;;;;;;;13.88;7.57;;;6.10;99.90;;;;;;5031978;28;20036;-68
2021/11/17 05:46:00;;;;;;;11.00;6.90;;;6.00;99.90;;;;;;5031419;28;20026;-68
2021/11/17 05:48:50;;;;;;;9.60;6.20;;;6.10;99.90;;;;;;4932586;29;20040;-68
2021/11/17 05:51:43;;;;;;;9.82;6.45;;;6.10;99.90;;;;;;5027907;28;20069;-68
2021/11/17 05:54:11;;;;;;;8.50;6.43;;;6.10;99.90;;;;;;5032044;28;20022;-68
2021/11/17 05:56:59;;;;;;;8.35;6.03;;;6.00;99.90;;;;;;5031190;28;20071;-68
2021/11/17 05:59:40;;;;;;;9.40;5.90;;;6.00;99.90;;;;;;5032226;28;20030;-68
2021/11/17 06:02:21;;;;;;;8.10;5.43;;;6.00;99.90;;;;;;5031754;28;20040;-68
2021/11/17 06:04:46;;;;;;;7.03;4.82;;;6.00;99.90;;;;;;5004087;28;20496;-68
2021/11/17 06:07:12;;;;;;;9.38;5.50;;;6.00;99.90;;;;;;5012070;28;20033;-69
2021/11/17 06:09:37;;;;;;;8.60;5.82;;;5.60;99.90;;;;;;5012303;28;20030;-69
2021/11/17 06:12:23;;;;;;;7.28;5.60;;;8.30;99.90;;;;;;5012965;28;20037;-69
2021/11/17 06:14:50;;;;;;;9.48;6.00;;;6.10;99.90;;;;;;5017737;28;20056;-69
2021/11/17 06:17:23;;;;;;;9.52;5.63;;;6.40;99.90;;;;;;5032192;28;20006;-72
2021/11/17 06:19:51;;;;;;;8.45;5.88;;;6.10;99.90;;;;;;5034500;28;20085;-71
2021/11/17 06:22:20;;;;;;;9.18;6.50;;;6.80;99.90;;;;;;5034132;28;20057;-71
2021/11/17 06:24:49;;;;;;;18.15;8.07;;;7.40;99.90;;;;;;5047884;28;20487;-72
2021/11/17 06:27:28;;;;;;;29.02;8.05;;;6.70;99.90;;;;;;5051231;28;20010;-69
2021/11/17 06:29:58;;;;;;;9.27;6.10;;;6.50;99.90;;;;;;5051186;28;20025;-70
2021/11/17 06:32:25;;;;;;;9.50;6.28;;;6.60;99.90;;;;;;5034042;28;20536;-71
2021/11/17 06:34:54;;;;;;;10.02;6.28;;;6.60;99.90;;;;;;5032328;28;20025;-69
2021/11/17 06:37:22;;;;;;;8.00;6.32;;;6.40;99.90;;;;;;5049850;28;20089;-69
2021/11/17 06:39:51;;;;;;;11.57;7.13;;;6.30;99.90;;;;;;5049957;28;20024;-69
2021/11/17 06:42:20;;;;;;;8.77;6.50;;;6.40;99.90;;;;;;5032921;28;20062;-68
2021/11/17 06:44:46;;;;;;;8.30;6.72;;;6.30;99.90;;;;;;5047587;28;20029;-68
2021/11/17 06:47:12;;;;;;;8.00;6.05;;;6.10;99.90;;;;;;5045522;28;20099;-69
2021/11/17 06:49:38;;;;;;;11.18;6.68;;;6.30;99.90;;;;;;5032535;28;20021;-68
2021/11/17 06:52:05;;;;;;;9.23;6.82;;;6.20;99.90;;;;;;5036799;28;20033;-69
2021/11/17 06:54:31;;;;;;;9.35;6.80;;;6.10;99.90;;;;;;5030261;28;20029;-69
2021/11/17 06:56:57;;;;;;;8.93;6.53;;;6.20;99.90;;;;;;5030935;28;20084;-69
2021/11/17 06:59:23;;;;;;;9.43;7.00;;;6.20;99.90;;;;;;5031587;28;20091;-69
2021/11/17 07:01:49;;;;;;;10.75;6.95;;;6.20;99.90;;;;;;5030570;28;20029;-64
2021/11/17 07:04:15;;;;;;;10.43;7.15;;;6.20;99.90;;;;;;5030096;28;20076;-65
2021/11/17 07:06:40;;;;;;;8.43;6.65;;;6.20;99.90;;;;;;5029696;28;20029;-64
2021/11/17 07:09:08;;;;;;;10.18;7.28;;;6.10;99.90;;;;;;5030085;28;20048;-65
2021/11/17 07:11:37;;;;;;;10.82;7.70;;;6.10;99.90;;;;;;5030187;28;20037;-64
2021/11/17 07:14:11;;;;;;;11.32;6.82;;;6.10;99.90;;;;;;5029783;28;20025;-61
2021/11/17 07:16:38;;;;;;;9.15;5.97;;;6.10;99.90;;;;;;5018758;28;20044;-64
2021/11/17 07:19:06;;;;;;;10.73;7.82;;;6.20;99.90;;;;;;5013842;28;20026;-64
2021/11/17 07:21:32;;;;;;;12.18;6.75;;;6.10;99.90;;;;;;5017687;28;20093;-66
2021/11/17 07:23:58;;;;;;;9.18;6.47;;;6.30;99.90;;;;;;5016558;28;20033;-64
2021/11/17 07:26:23;;;;;;;11.60;6.35;;;6.10;99.90;;;;;;5013337;28;20099;-70
2021/11/17 07:28:49;;;;;;;11.32;7.60;;;6.20;99.90;;;;;;5011338;28;20515;-62
2021/11/17 07:31:15;;;;;;;11.10;6.07;;;6.20;99.90;;;;;;5035116;23;20494;-64
2021/11/17 07:33:41;;;;;;;10.60;6.15;;;6.30;99.90;;;;;;5043433;28;20021;-65
2021/11/17 07:36:07;;;;;;;12.00;6.43;;;6.30;99.90;;;;;;5050260;28;20163;-69
2021/11/17 07:38:33;;;;;;;17.15;13.45;;;6.80;99.90;;;;;;5050348;28;20025;-65
2021/11/17 07:40:59;;;;;;;8.90;6.45;;;;;;;;;;5049994;28;20025;-65
2021/11/17 07:43:27;;;;;;;10.57;6.45;;;6.30;99.90;;;;;;5050364;28;20498;-65
2021/11/17 07:45:53;;;;;;;9.48;6.53;;;6.40;99.90;;;;;;5052795;28;20638;-65
2021/11/17 07:48:22;;;;;;;10.73;7.40;;;6.40;99.90;;;;;;5053989;28;20471;-66
2021/11/17 07:50:48;;;;;;;9.75;6.93;;;6.40;99.90;;;;;;5054116;28;20037;-65
2021/11/17 07:53:16;;;;;;;14.75;7.82;;;6.50;99.90;;;;;;5054220;28;20029;-66
2021/11/17 07:55:44;;;;;;;13.65;8.52;;;6.50;99.90;;;;;;5053637;28;20017;-65
2021/11/17 07:58:11;;;;;;;10.73;6.90;;;6.50;99.90;;;;;;5054203;28;20032;-65
2021/11/17 08:00:40;;;;;;;10.18;6.70;;;6.20;99.90;;;;;;5054148;28;20025;-65
2021/11/17 08:03:08;;;;;;;6.95;5.60;;;6.40;99.90;;;;;;5038683;28;20060;-66
2021/11/17 08:05:33;;;;;;;8.93;6.63;;;6.60;99.90;;;;;;5033610;28;20018;-66
2021/11/17 08:08:00;;;;;;;11.70;6.53;;;6.60;99.90;;;;;;5034195;28;20111;-66
2021/11/17 08:10:29;;;;;;;15.02;8.75;;;6.50;99.90;;;;;;5033723;28;20384;-65
2021/11/17 08:12:54;;;;;;;9.50;6.93;;;6.60;99.90;;;;;;5033673;28;20022;-65
2021/11/17 08:15:20;;;;;;;10.70;7.28;;;6.70;99.90;;;;;;5033464;28;20021;-65
2021/11/17 08:17:46;;;;;;;8.60;6.13;;;6.80;99.90;;;;;;5033313;28;20025;-64
2021/11/17 08:20:16;;;;;;;9.52;5.68;;;6.70;99.90;;;;;;5033444;28;20079;-65
2021/11/17 08:22:44;;;;;;;11.43;5.80;;;6.80;99.90;;;;;;5033753;28;20076;-65
2021/11/17 08:25:11;;;;;;;12.55;6.15;;;6.80;99.90;;;;;;5015682;28;20034;-66
2021/11/17 08:27:38;;;;;;;18.33;8.45;;;7.10;99.90;;;;;;5013725;28;20037;-64
2021/11/17 08:30:09;;;;;;;19.55;10.07;;;7.20;99.90;;;;;;5013595;28;20160;-66
2021/11/17 08:32:34;;;;;;;13.95;7.35;;;6.90;99.90;;;;;;5018849;28;20038;-66
2021/11/17 08:35:00;;;;;;;11.40;5.43;;;6.90;99.90;;;;;;5012315;28;20424;-65
2021/11/17 08:37:26;;;;;;;8.05;5.43;;;7.00;99.90;;;;;;5013329;28;20040;-65
2021/11/17 08:39:53;;;;;;;8.77;5.78;;;7.10;99.90;;;;;;5013339;28;20022;-65
2021/11/17 08:42:19;;;;;;;9.30;5.50;;;7.00;99.90;;;;;;5013735;28;20391;-65
2021/11/17 08:44:45;;;;;;;7.03;5.38;;;7.00;99.90;;;;;;5013204;28;20029;-65
2021/11/17 08:47:13;;;;;;;7.53;5.28;;;7.10;99.90;;;;;;5013353;28;20036;-65
2021/11/17 08:49:40;;;;;;;10.10;5.55;;;7.20;99.90;;;;;;4995828;28;20021;-65
2021/11/17 08:52:07;;;;;;;8.60;5.03;;;7.10;99.90;;;;;;5012544;28;20018;-66
2021/11/17 08:54:34;;;;;;;6.72;4.78;;;7.20;99.90;;;;;;5012740;28;20046;-64
2021/11/17 08:57:01;;;;;;;7.47;5.57;;;7.20;99.90;;;;;;5012031;28;20030;-65
2021/11/17 08:59:31;;;;;;;9.00;5.22;;;7.20;99.90;;;;;;5013248;28;20025;-65
2021/11/17 09:01:58;;;;;;;8.70;5.53;;;7.40;99.90;;;;;;5017824;28;20415;-65
2021/11/17 09:04:24;;;;;;;9.82;5.47;;;7.50;99.90;;;;;;5032200;28;20028;-69
2021/11/17 09:06:50;;;;;;;8.68;5.47;;;7.30;99.90;;;;;;5032303;28;20025;-70
2021/11/17 09:09:20;;;;;;;7.13;5.20;;;7.20;99.90;;;;;;5032524;28;20034;-70
2021/11/17 09:11:46;;;;;;;8.43;5.38;;;6.90;99.90;;;;;;5032769;28;20030;-70
2021/11/17 09:14:13;;;;;;;7.15;5.70;;;7.00;99.90;;;;;;5033064;28;20024;-70
2021/11/17 09:16:40;;;;;;;7.22;4.82;;;7.10;99.90;;;;;;5032205;28;20017;-70
2021/11/17 09:19:07;;;;;;;7.80;4.95;;;6.90;99.90;;;;;;5033031;28;20048;-70
2021/11/17 09:21:37;;;;;;;6.88;4.90;;;6.60;99.90;;;;;;5033102;28;20079;-70
2021/11/17 09:24:05;;;;;;;6.65;4.85;;;7.00;99.90;;;;;;5034205;28;20026;-70
2021/11/17 09:26:31;;;;;;;8.77;5.10;;;6.50;99.90;;;;;;5038725;28;20106;-71
2021/11/17 09:28:58;;;;;;;7.90;5.45;;;7.00;99.90;;;;;;5051781;28;20026;-70
2021/11/17 09:31:27;;;;;;;7.65;5.53;;;7.00;99.90;;;;;;5054315;28;20040;-70
2021/11/17 09:33:53;;;;;;;8.38;5.40;;;7.00;99.90;;;;;;5052606;28;20025;-70
2021/11/17 09:36:22;;;;;;;8.00;5.63;;;7.00;99.90;;;;;;5015672;28;20383;-69
2021/11/17 09:38:51;;;;;;;7.05;5.32;;;7.50;99.90;;;;;;5036392;28;20021;-71
2021/11/17 09:41:21;;;;;;;9.15;5.15;;;7.00;99.90;;;;;;5041451;28;20168;-70
2021/11/17 09:43:56;;;;;;;7.18;5.10;;;7.00;99.90;;;;;;5042680;28;20022;-71
2021/11/17 09:46:26;;;;;;;10.13;5.30;;;6.90;99.90;;;;;;5034253;28;20091;-69
2021/11/17 09:48:56;;;;;;;7.90;5.65;;;6.90;99.90;;;;;;5032395;28;20025;-70
2021/11/17 09:51:34;;;;;;;7.50;5.40;;;6.80;99.90;;;;;;5032962;28;20479;-70
2021/11/17 09:54:00;;;;;;;7.00;5.32;;;7.10;99.90;;;;;;5014908;28;20088;-70
2021/11/17 09:56:34;;;;;;;11.15;5.32;;;6.90;99.90;;;;;;5032927;28;20026;-71
2021/11/17 09:59:05;;;;;;;7.78;5.25;;;7.00;99.90;;;;;;5032375;28;20049;-69
2021/11/17 10:01:36;;;;;;;10.32;5.10;;;7.10;99.90;;;;;;5032117;28;20036;-70
2021/11/17 10:04:05;;;;;;;6.35;4.63;;;7.20;99.90;;;;;;5031424;28;20021;-69
2021/11/17 10:14:58;;;;;;;9.30;5.45;;;6.60;99.90;;;;;;5031578;28;20487;-69
2021/11/17 10:17:45;;;;;;;8.27;6.68;;;7.60;99.90;;;;;;5031238;28;20029;-71
2021/11/17 10:20:31;;;;;;;9.55;6.65;;;7.20;99.90;;;;;;5013804;28;20391;-71
2021/11/17 10:23:06;;;;;;;8.57;7.13;;;7.10;99.90;;;;;;5031490;28;20033;-70
2021/11/17 10:25:41;;;;;;;32.00;20.02;;;7.10;99.90;;;;;;5031203;28;20029;-71
2021/11/17 10:28:07;;;;;;;34.63;23.25;;;7.10;99.90;;;;;;5031422;28;20041;-69
2021/11/17 10:30:55;;;;;;;9.73;7.10;;;7.00;99.90;;;;;;5031433;28;20026;-69
2021/11/17 10:33:39;;;;;;;54.92;39.60;;;6.90;99.90;;;;;;5031184;28;20038;-70
2021/11/17 10:36:15;;;;;;;8.80;6.45;;;7.20;99.90;;;;;;5030558;28;20025;-69
2021/11/17 10:38:49;;;;;;;12.20;9.57;;;6.70;99.90;;;;;;5031603;28;20017;-71
2021/11/17 10:41:23;;;;;;;6.55;4.25;;;6.70;99.90;;;;;;5031403;28;20072;-71
2021/11/17 10:44:09;;;;;;;14.45;6.55;;;6.50;99.90;;;;;;5031414;28;20079;-70
2021/11/17 10:46:44;;;;;;;12.88;6.75;;;6.90;99.90;;;;;;5030383;28;20487;-68
2021/11/17 10:49:17;;;;;;;4.45;3.95;;;6.60;99.90;;;;;;5013429;28;20049;-67
2021/11/17 10:51:51;;;;;;;6.68;3.65;;;6.40;99.90;;;;;;5031216;28;20536;-68
2021/11/17 10:54:21;;;;;;;24.67;19.17;;;6.70;99.90;;;;;;5031010;28;20033;-73
2021/11/17 10:57:13;;;;;;;15.10;9.82;;;6.80;99.90;;;;;;5013971;28;20030;-75
2021/11/17 10:59:40;;;;;;;10.27;8.07;;;6.70;99.90;;;;;;5014096;28;20025;-76
2021/11/17 11:02:11;;;;;;;5.38;3.72;;;6.80;99.90;;;;;;5013801;28;20025;-76
2021/11/17 11:04:50;;;;;;;2.45;2.20;;;6.80;99.90;;;;;;5030859;28;20034;-77
2021/11/17 11:07:19;;;;;;;4.32;3.38;;;6.90;99.90;;;;;;5013856;28;20022;-76
2021/11/17 11:09:58;;;;;;;6.72;3.35;;;6.80;99.90;;;;;;5031778;28;20083;-66
2021/11/17 11:12:26;;;;;;;9.10;4.13;;;7.00;99.90;;;;;;5031103;28;20026;-67
2021/11/17 11:15:06;;;;;;;4.75;3.03;;;6.90;99.90;;;;;;5030670;28;20054;-71
2021/11/17 11:18:09;;;;;;;2.25;2.05;;;6.70;99.90;;;;;;5031326;28;20028;-72
2021/11/17 11:20:36;;;;;;;1.77;1.67;;;7.20;99.90;;;;;;5034167;28;20416;-72
2021/11/17 11:23:05;;;;;;;4.47;3.03;;;6.90;99.90;;;;;;5035599;28;20152;-73
2021/11/17 11:25:45;;;;;;;6.07;2.28;;;6.90;99.90;;;;;;5034870;28;20091;-71
2021/11/17 11:28:20;;;;;;;5.55;4.25;;;7.00;99.90;;;;;;5035281;28;20036;-72
2021/11/17 11:31:01;;;;;;;2.92;2.25;;;7.10;99.90;;;;;;5035210;28;20033;-73
2021/11/17 11:33:32;;;;;;;2.78;2.58;;;6.90;99.90;;;;;;5035347;28;20048;-73
2021/11/17 11:36:10;;;;;;;2.60;2.40;;;6.60;99.90;;;;;;5035105;28;20034;-73
2021/11/17 11:38:43;;;;;;;5.20;2.40;;;7.00;99.90;;;;;;5017943;28;20036;-76
2021/11/17 11:41:28;;;;;;;20.40;12.73;;;6.90;99.90;;;;;;5018144;28;20112;-76
2021/11/17 11:44:19;;;;;;;4.15;3.03;;;6.90;99.90;;;;;;5035271;28;20487;-73
2021/11/17 11:46:58;;;;;;;3.47;2.97;;;7.10;99.90;;;;;;5035208;28;20387;-73
2021/11/17 11:49:39;;;;;;;8.13;3.10;;;7.00;99.90;;;;;;5034764;28;20036;-74
2021/11/17 11:52:20;;;;;;;5.83;3.43;;;7.70;99.90;;;;;;5035040;28;20030;-73
2021/11/17 11:54:51;;;;;;;5.50;3.20;;;7.10;99.90;;;;;;5034498;28;20397;-72
2021/11/17 11:57:23;;;;;;;6.22;4.57;;;7.20;99.90;;;;;;5034427;28;20022;-71
2021/11/17 11:59:52;;;;;;;3.60;2.43;;;6.80;99.90;;;;;;5034377;28;20028;-70
2021/11/17 12:02:21;;;;;;;2.55;2.30;;;7.10;99.90;;;;;;5033596;28;20068;-69
2021/11/17 12:04:58;;;;;;;6.03;3.80;;;6.80;99.90;;;;;;5015510;28;20033;-71
2021/11/17 12:07:37;;;;;;;5.60;2.55;;;6.80;99.90;;;;;;5033919;28;20511;-69
2021/11/17 12:10:25;;;;;;;2.35;1.88;;;7.10;99.90;;;;;;5033655;28;20033;-71
2021/11/17 12:12:51;;;;;;;5.30;2.17;;;7.20;99.90;;;;;;5033534;28;20025;-69
2021/11/17 12:15:20;;;;;;;4.95;3.03;;;7.00;99.90;;;;;;5032883;28;20087;-65
2021/11/17 12:17:47;;;;;;;3.38;2.20;;;7.10;99.90;;;;;;5033411;28;20026;-66
2021/11/17 12:20:28;;;;;;;4.72;2.05;;;8.50;99.90;;;;;;5033549;28;20021;-67
2021/11/17 12:22:56;;;;;;;7.47;2.70;;;8.20;99.90;;;;;;5033412;28;20032;-68
2021/11/17 12:25:32;;;;;;;5.07;2.30;;;7.70;99.90;;;;;;5032666;28;20042;-67
2021/11/17 12:28:14;;;;;;;2.33;1.92;;;7.60;99.90;;;;;;5033619;28;20080;-66
2021/11/17 12:30:54;;;;;;;3.10;2.45;;;7.50;99.90;;;;;;5033034;28;20155;-66
2021/11/17 12:33:24;;;;;;;2.55;2.35;;;7.40;99.90;;;;;;5033511;28;20033;-67
2021/11/17 12:36:03;;;;;;;3.53;2.00;;;7.30;99.90;;;;;;5032831;28;20066;-67
2021/11/17 12:38:29;;;;;;;5.88;3.25;;;7.30;99.90;;;;;;5033311;28;20037;-66
2021/11/17 12:40:59;;;;;;;10.20;2.47;;;7.30;99.90;;;;;;5033379;28;20144;-68
2021/11/17 12:43:35;;;;;;;6.80;2.80;;;7.40;99.90;;;;;;5032949;28;20025;-67
2021/11/17 12:46:20;;;;;;;2.47;2.17;;;7.10;99.90;;;;;;5032490;28;20396;-68
2021/11/17 12:49:04;;;;;;;2.88;1.90;;;7.30;99.90;;;;;;5033001;28;20045;-66
2021/11/17 12:51:44;;;;;;;4.22;2.30;;;7.10;99.90;;;;;;5032823;28;20029;-67
2021/11/17 12:54:26;;;;;;;2.20;1.80;;;7.20;99.90;;;;;;5033124;28;20056;-67
2021/11/17 12:57:23;;;;;;;7.93;2.78;;;7.10;99.90;;;;;;5032848;28;20021;-67
2021/11/17 12:59:58;;;;;;;5.28;1.60;;;7.30;99.90;;;;;;5032806;28;20448;-67
2021/11/17 13:02:24;;;;;;;1.67;1.58;;;7.40;99.90;;;;;;5032460;28;20095;-67
2021/11/17 13:04:53;;;;;;;1.52;1.42;;;7.10;99.90;;;;;;5032680;28;20488;-66
2021/11/17 13:07:41;;;;;;;4.53;1.60;;;7.00;99.90;;;;;;5015742;28;20032;-67
2021/11/17 13:10:07;;;;;;;6.15;2.15;;;7.20;99.90;;;;;;5032578;28;20090;-68
2021/11/17 13:12:36;;;;;;;1.80;1.33;;;7.20;99.90;;;;;;5032488;28;20029;-67
2021/11/17 13:15:05;;;;;;;2.05;1.25;;;7.20;99.90;;;;;;5031738;28;20540;-68
2021/11/17 13:17:33;;;;;;;1.67;1.55;;;7.60;99.90;;;;;;5032568;28;20079;-68
2021/11/17 13:20:14;;;;;;;1.35;1.25;;;7.30;99.90;;;;;;5033991;28;20021;-67
2021/11/17 13:22:51;;;;;;;2.00;1.85;;;7.20;99.90;;;;;;5016021;28;20033;-67
2021/11/17 13:26:00;;;;;;;1.85;1.50;;;7.30;99.90;;;;;;5033539;28;20472;-68
2021/11/17 13:28:37;;;;;;;1.40;1.30;;;7.30;99.90;;;;;;5036260;28;20072;-67
2021/11/17 13:31:44;;;;;;;2.85;1.67;;;7.30;99.90;;;;;;5033331;28;20025;-66
2021/11/17 13:34:39;;;;;;;2.10;1.70;;;7.60;99.90;;;;;;4897480;29;20485;-66
2021/11/17 13:37:24;;;;;;;2.13;1.88;;;7.30;99.90;;;;;;5004206;22;20056;-63
2021/11/17 13:39:58;;;;;;;3.85;1.85;;;7.20;99.90;;;;;;5035585;28;20360;-64
2021/11/17 13:42:26;;;;;;;2.33;2.13;;;7.40;99.90;;;;;;5038173;28;20033;-64
2021/11/17 13:44:53;;;;;;;2.83;2.25;;;7.20;99.90;;;;;;5038571;28;20702;-64
2021/11/17 13:47:21;;;;;;;11.75;3.25;;;7.10;99.90;;;;;;5038652;28;20087;-65
2021/11/17 13:49:50;;;;;;;2.40;1.85;;;7.70;99.90;;;;;;5033838;28;20022;-64
2021/11/17 13:52:22;;;;;;;2.80;2.38;;;7.10;99.90;;;;;;5031415;28;20095;-64
2021/11/17 13:54:48;;;;;;;2.40;2.20;;;7.20;99.90;;;;;;5030980;28;20030;-63
2021/11/17 13:57:15;;;;;;;3.60;2.83;;;7.30;99.90;;;;;;5031424;28;20083;-63
2021/11/17 13:59:42;;;;;;;2.70;2.50;;;7.20;99.90;;;;;;5031620;28;20030;-64
2021/11/17 14:02:09;;;;;;;4.10;2.88;;;7.10;99.90;;;;;;5031681;28;20021;-62
2021/11/17 14:04:35;;;;;;;2.83;2.63;;;7.10;99.90;;;;;;5030520;28;20033;-64
2021/11/17 14:07:01;;;;;;;2.90;2.58;;;7.20;99.90;;;;;;5040364;28;20021;-64
2021/11/17 14:09:27;;;;;;;4.45;2.42;;;7.10;99.90;;;;;;5051953;28;20172;-64
2021/11/17 14:11:55;;;;;;;4.47;2.88;;;7.10;99.90;;;;;;5051192;28;20444;-65
2021/11/17 14:14:21;;;;;;;3.20;2.90;;;7.10;99.90;;;;;;5050663;28;20025;-65
2021/11/17 14:16:47;;;;;;;5.05;2.58;;;7.10;99.90;;;;;;5051009;28;20032;-66
2021/11/17 14:19:13;;;;;;;4.15;3.13;;;7.10;99.90;;;;;;5042773;28;20025;-68
2021/11/17 14:21:39;;;;;;;3.47;3.17;;;7.10;99.90;;;;;;5051183;28;20467;-69
2021/11/17 14:24:05;;;;;;;3.67;2.85;;;7.10;99.90;;;;;;5045956;28;20092;-68
2021/11/17 14:26:32;;;;;;;3.78;3.22;;;7.00;99.90;;;;;;5034651;28;20097;-68
2021/11/17 14:29:10;;;;;;;3.55;3.10;;;7.00;99.90;;;;;;5040209;28;20112;-69
2021/11/17 14:31:48;;;;;;;3.67;3.08;;;7.10;99.90;;;;;;5042452;28;20033;-69
2021/11/17 14:34:14;;;;;;;3.60;3.30;;;7.10;99.90;;;;;;5037703;28;20053;-69
2021/11/17 14:36:52;;;;;;;4.53;3.28;;;7.00;99.90;;;;;;5038703;28;20071;-73
2021/11/17 14:39:21;;;;;;;5.57;3.40;;;7.00;99.90;;;;;;5031440;28;20030;-73
2021/11/17 14:41:47;;;;;;;4.93;3.85;;;7.20;99.90;;;;;;5040574;28;20385;-73
2021/11/17 14:44:13;;;;;;;5.70;3.75;;;7.20;99.90;;;;;;5038997;28;20454;-73
2021/11/17 14:46:41;;;;;;;7.32;3.72;;;6.90;99.90;;;;;;5040492;28;20021;-72
2021/11/17 14:49:07;;;;;;;6.38;4.10;;;6.90;99.90;;;;;;5040786;28;20089;-73
2021/11/17 14:51:33;;;;;;;3.30;3.00;;;6.90;99.90;;;;;;5038725;28;20029;-74
2021/11/17 14:53:59;;;;;;;4.18;3.67;;;6.90;99.90;;;;;;5042705;28;20025;-73
2021/11/17 14:56:25;;;;;;;3.83;3.28;;;7.00;99.90;;;;;;5043251;28;20048;-75
2021/11/17 14:58:52;;;;;;;5.60;4.22;;;7.00;99.90;;;;;;5044302;28;20475;-68
2021/11/17 15:01:21;;;;;;;6.30;3.90;;;6.90;99.90;;;;;;5045353;28;20022;-67
2021/11/17 15:03:48;;;;;;;4.95;3.90;;;6.90;99.90;;;;;;5043155;28;20017;-65
2021/11/17 15:06:17;;;;;;;6.15;4.00;;;6.90;99.90;;;;;;5049283;28;20025;-67
2021/11/17 15:08:44;;;;;;;8.25;3.92;;;7.00;99.90;;;;;;5036436;28;20036;-68
2021/11/17 15:11:10;;;;;;;6.50;4.13;;;7.00;99.90;;;;;;5054482;28;20029;-68
2021/11/17 15:13:37;;;;;;;4.13;3.42;;;7.00;99.90;;;;;;5058696;28;20493;-68
2021/11/17 15:16:06;;;;;;;5.97;4.13;;;7.00;99.90;;;;;;5036841;28;20102;-67
2021/11/17 15:18:32;;;;;;;6.78;3.92;;;6.90;99.90;;;;;;5055497;28;20017;-68
2021/11/17 15:20:58;;;;;;;8.88;4.75;;;6.90;99.90;;;;;;5055999;28;20079;-68
2021/11/17 15:23:26;;;;;;;6.00;4.70;;;6.90;99.90;;;;;;5055482;28;20025;-68
2021/11/17 15:25:51;;;;;;;6.80;4.55;;;6.80;99.90;;;;;;5054640;28;20029;-69
2021/11/17 15:28:25;;;;;;;7.72;4.88;;;6.90;99.90;;;;;;5055938;28;20501;-67
2021/11/17 15:30:55;;;;;;;6.18;4.63;;;6.90;99.90;;;;;;5057729;28;20021;-67
2021/11/17 15:33:21;;;;;;;9.13;5.00;;;6.90;99.90;;;;;;5055928;28;20036;-68
2021/11/17 15:35:47;;;;;;;6.90;5.80;;;7.30;99.90;;;;;;5055866;28;20033;-67
2021/11/17 15:38:14;;;;;;;10.13;5.00;;;6.70;99.90;;;;;;5058109;28;20050;-68
2021/11/17 15:40:48;;;;;;;6.57;4.70;;;6.70;99.90;;;;;;5040516;28;20060;-67
2021/11/17 15:43:14;;;;;;;8.50;4.22;;;6.60;99.90;;;;;;5056877;28;20052;-66
2021/11/17 15:45:39;;;;;;;4.43;3.90;;;6.70;99.90;;;;;;5038156;28;20024;-64
2021/11/17 15:48:07;;;;;;;5.18;4.07;;;6.80;99.90;;;;;;5038927;28;20171;-69
2021/11/17 15:50:46;;;;;;;6.03;3.78;;;6.70;99.90;;;;;;5057019;28;20029;-66
2021/11/17 15:53:12;;;;;;;4.22;3.63;;;6.70;99.90;;;;;;5037682;28;20033;-65
2021/11/17 15:55:38;;;;;;;4.35;3.60;;;6.90;99.90;;;;;;5055921;28;20609;-67
2021/11/17 15:58:05;;;;;;;6.03;3.65;;;6.60;99.90;;;;;;5055937;28;20040;-67
2021/11/17 16:00:32;;;;;;;4.03;3.63;;;6.70;99.90;;;;;;5055605;28;20022;-67
2021/11/17 16:03:00;;;;;;;3.78;3.38;;;6.60;99.90;;;;;;5056078;28;20039;-67
2021/11/17 16:05:26;;;;;;;5.03;3.60;;;6.70;99.90;;;;;;5054794;28;20078;-67